sensor_id;sensor_type;location;lat;lon;timestamp;P1;durP1;ratioP1;P2;durP2;ratioP2
69878;SDS011;57161;43.136;24.706;2023-08-01T00:00:00;2.60;;;2.40;;
69878;SDS011;57161;43.136;24.706;2023-08-01T00:02:26;2.60;;;2.40;;
69878;SDS011;57161;43.136;24.706;2023-08-01T00:04:52;2.30;;;2.10;;
69878;SDS011;57161;43.136;24.706;2023-08-01T00:07:17;2.65;;;2.45;;
69878;SDS011;57161;43.136;24.706;2023-08-01T00:09:43;2.50;;;2.30;;
69878;SDS011;57161;43.136;24.706;2023-08-01T00:12:08;2.40;;;2.15;;
69878;SDS011;57161;43.136;24.706;2023-08-01T00:14:35;2.70;;;2.50;;
69878;SDS011;57161;43.136;24.706;2023-08-01T00:17:01;2.55;;;2.35;;
69878;SDS011;57161;43.136;24.706;2023-08-01T00:19:27;2.67;;;2.47;;
69878;SDS011;57161;43.136;24.706;2023-08-01T00:21:53;2.28;;;2.10;;
69878;SDS011;57161;43.136;24.706;2023-08-01T00:24:18;2.50;;;2.30;;
69878;SDS011;57161;43.136;24.706;2023-08-01T00:26:44;2.67;;;2.40;;
69878;SDS011;57161;43.136;24.706;2023-08-01T00:29:09;2.60;;;2.40;;
69878;SDS011;57161;43.136;24.706;2023-08-01T00:31:35;2.55;;;2.35;;
69878;SDS011;57161;43.136;24.706;2023-08-01T00:34:00;2.40;;;2.20;;
69878;SDS011;57161;43.136;24.706;2023-08-01T00:36:26;2.45;;;2.25;;
69878;SDS011;57161;43.136;24.706;2023-08-01T00:38:51;2.67;;;2.47;;
69878;SDS011;57161;43.136;24.706;2023-08-01T00:41:17;2.30;;;2.20;;
69878;SDS011;57161;43.136;24.706;2023-08-01T00:43:42;2.28;;;2.10;;
69878;SDS011;57161;43.136;24.706;2023-08-01T00:46:08;2.38;;;2.17;;
69878;SDS011;57161;43.136;24.706;2023-08-01T00:48:34;2.45;;;2.25;;
69878;SDS011;57161;43.136;24.706;2023-08-01T00:51:05;2.60;;;2.40;;
69878;SDS011;57161;43.136;24.706;2023-08-01T00:53:32;2.40;;;2.20;;
69878;SDS011;57161;43.136;24.706;2023-08-01T00:55:58;2.28;;;2.08;;
69878;SDS011;57161;43.136;24.706;2023-08-01T00:58:24;2.38;;;2.17;;
69878;SDS011;57161;43.136;24.706;2023-08-01T01:00:50;2.47;;;2.28;;
69878;SDS011;57161;43.136;24.706;2023-08-01T01:03:16;2.22;;;2.10;;
69878;SDS011;57161;43.136;24.706;2023-08-01T01:05:46;2.40;;;2.20;;
69878;SDS011;57161;43.136;24.706;2023-08-01T01:08:19;2.38;;;2.17;;
69878;SDS011;57161;43.136;24.706;2023-08-01T01:10:45;2.38;;;2.17;;
69878;SDS011;57161;43.136;24.706;2023-08-01T01:13:11;2.45;;;2.25;;
69878;SDS011;57161;43.136;24.706;2023-08-01T01:15:37;3.13;;;2.10;;
69878;SDS011;57161;43.136;24.706;2023-08-01T01:18:02;2.10;;;2.00;;
69878;SDS011;57161;43.136;24.706;2023-08-01T01:20:34;2.20;;;2.10;;
69878;SDS011;57161;43.136;24.706;2023-08-01T01:23:00;2.15;;;1.92;;
69878;SDS011;57161;43.136;24.706;2023-08-01T01:25:28;2.20;;;2.03;;
69878;SDS011;57161;43.136;24.706;2023-08-01T01:27:55;2.40;;;2.20;;
69878;SDS011;57161;43.136;24.706;2023-08-01T01:30:21;2.50;;;2.30;;
69878;SDS011;57161;43.136;24.706;2023-08-01T01:32:47;2.47;;;2.05;;
69878;SDS011;57161;43.136;24.706;2023-08-01T01:35:14;2.13;;;2.00;;
69878;SDS011;57161;43.136;24.706;2023-08-01T01:37:39;2.58;;;2.38;;
69878;SDS011;57161;43.136;24.706;2023-08-01T01:40:05;2.17;;;2.00;;
69878;SDS011;57161;43.136;24.706;2023-08-01T01:42:31;2.45;;;2.25;;
69878;SDS011;57161;43.136;24.706;2023-08-01T01:44:57;2.20;;;2.00;;
69878;SDS011;57161;43.136;24.706;2023-08-01T01:47:22;2.05;;;1.95;;
69878;SDS011;57161;43.136;24.706;2023-08-01T01:49:48;2.17;;;2.08;;
69878;SDS011;57161;43.136;24.706;2023-08-01T01:52:13;1.95;;;1.85;;
69878;SDS011;57161;43.136;24.706;2023-08-01T01:54:39;2.17;;;2.05;;
69878;SDS011;57161;43.136;24.706;2023-08-01T01:57:05;2.00;;;1.90;;
69878;SDS011;57161;43.136;24.706;2023-08-01T01:59:31;1.88;;;1.77;;
69878;SDS011;57161;43.136;24.706;2023-08-01T02:01:56;2.30;;;2.10;;
69878;SDS011;57161;43.136;24.706;2023-08-01T02:04:22;2.03;;;1.83;;
69878;SDS011;57161;43.136;24.706;2023-08-01T02:06:48;2.03;;;1.90;;
69878;SDS011;57161;43.136;24.706;2023-08-01T02:09:13;2.22;;;2.10;;
69878;SDS011;57161;43.136;24.706;2023-08-01T02:11:39;1.80;;;1.70;;
69878;SDS011;57161;43.136;24.706;2023-08-01T02:14:04;2.30;;;2.10;;
69878;SDS011;57161;43.136;24.706;2023-08-01T02:16:30;1.80;;;1.70;;
69878;SDS011;57161;43.136;24.706;2023-08-01T02:18:56;2.10;;;1.90;;
69878;SDS011;57161;43.136;24.706;2023-08-01T02:21:21;2.40;;;2.20;;
69878;SDS011;57161;43.136;24.706;2023-08-01T02:23:48;2.17;;;2.08;;
69878;SDS011;57161;43.136;24.706;2023-08-01T02:26:13;2.25;;;2.05;;
69878;SDS011;57161;43.136;24.706;2023-08-01T02:28:39;2.20;;;2.00;;
69878;SDS011;57161;43.136;24.706;2023-08-01T02:31:05;2.13;;;2.00;;
69878;SDS011;57161;43.136;24.706;2023-08-01T02:33:30;1.85;;;1.75;;
69878;SDS011;57161;43.136;24.706;2023-08-01T02:35:56;1.95;;;1.85;;
69878;SDS011;57161;43.136;24.706;2023-08-01T02:38:21;2.15;;;1.98;;
69878;SDS011;57161;43.136;24.706;2023-08-01T02:40:49;2.35;;;2.15;;
69878;SDS011;57161;43.136;24.706;2023-08-01T02:43:14;1.95;;;1.85;;
69878;SDS011;57161;43.136;24.706;2023-08-01T02:45:44;2.03;;;1.83;;
69878;SDS011;57161;43.136;24.706;2023-08-01T02:48:13;2.00;;;1.90;;
69878;SDS011;57161;43.136;24.706;2023-08-01T02:50:38;2.20;;;2.00;;
69878;SDS011;57161;43.136;24.706;2023-08-01T02:53:05;1.80;;;1.70;;
69878;SDS011;57161;43.136;24.706;2023-08-01T02:55:30;1.70;;;1.60;;
69878;SDS011;57161;43.136;24.706;2023-08-01T02:57:56;1.80;;;1.70;;
69878;SDS011;57161;43.136;24.706;2023-08-01T03:00:21;2.00;;;1.90;;
69878;SDS011;57161;43.136;24.706;2023-08-01T03:02:47;1.98;;;1.88;;
69878;SDS011;57161;43.136;24.706;2023-08-01T03:05:12;1.80;;;1.70;;
69878;SDS011;57161;43.136;24.706;2023-08-01T03:07:38;1.70;;;1.60;;
69878;SDS011;57161;43.136;24.706;2023-08-01T03:10:04;2.03;;;1.85;;
69878;SDS011;57161;43.136;24.706;2023-08-01T03:12:31;1.77;;;1.67;;
69878;SDS011;57161;43.136;24.706;2023-08-01T03:14:57;2.55;;;1.90;;
69878;SDS011;57161;43.136;24.706;2023-08-01T03:17:23;2.08;;;1.90;;
69878;SDS011;57161;43.136;24.706;2023-08-01T03:19:49;1.90;;;1.70;;
69878;SDS011;57161;43.136;24.706;2023-08-01T03:22:14;2.20;;;2.00;;
69878;SDS011;57161;43.136;24.706;2023-08-01T03:24:41;1.75;;;1.65;;
69878;SDS011;57161;43.136;24.706;2023-08-01T03:27:07;1.90;;;1.80;;
69878;SDS011;57161;43.136;24.706;2023-08-01T03:29:32;2.05;;;1.85;;
69878;SDS011;57161;43.136;24.706;2023-08-01T03:31:58;2.95;;;1.90;;
69878;SDS011;57161;43.136;24.706;2023-08-01T03:34:23;1.70;;;1.60;;
69878;SDS011;57161;43.136;24.706;2023-08-01T03:36:49;1.70;;;1.60;;
69878;SDS011;57161;43.136;24.706;2023-08-01T03:39:16;2.03;;;1.90;;
69878;SDS011;57161;43.136;24.706;2023-08-01T03:41:41;1.90;;;1.80;;
69878;SDS011;57161;43.136;24.706;2023-08-01T03:44:07;2.00;;;1.90;;
69878;SDS011;57161;43.136;24.706;2023-08-01T03:46:32;2.00;;;1.90;;
69878;SDS011;57161;43.136;24.706;2023-08-01T03:48:58;1.60;;;1.50;;
69878;SDS011;57161;43.136;24.706;2023-08-01T03:51:23;1.88;;;1.77;;
69878;SDS011;57161;43.136;24.706;2023-08-01T03:53:49;1.83;;;1.70;;
69878;SDS011;57161;43.136;24.706;2023-08-01T03:56:15;1.88;;;1.77;;
69878;SDS011;57161;43.136;24.706;2023-08-01T03:58:41;1.70;;;1.60;;
69878;SDS011;57161;43.136;24.706;2023-08-01T04:01:06;1.73;;;1.63;;
69878;SDS011;57161;43.136;24.706;2023-08-01T04:03:32;1.67;;;1.58;;
69878;SDS011;57161;43.136;24.706;2023-08-01T04:05:57;2.63;;;1.80;;
69878;SDS011;57161;43.136;24.706;2023-08-01T04:08:23;1.80;;;1.70;;
69878;SDS011;57161;43.136;24.706;2023-08-01T04:10:49;1.95;;;1.85;;
69878;SDS011;57161;43.136;24.706;2023-08-01T04:13:17;2.10;;;2.00;;
69878;SDS011;57161;43.136;24.706;2023-08-01T04:15:43;1.73;;;1.63;;
69878;SDS011;57161;43.136;24.706;2023-08-01T04:18:08;1.90;;;1.80;;
69878;SDS011;57161;43.136;24.706;2023-08-01T04:20:34;1.95;;;1.80;;
69878;SDS011;57161;43.136;24.706;2023-08-01T04:22:59;1.90;;;1.80;;
69878;SDS011;57161;43.136;24.706;2023-08-01T04:25:25;2.03;;;1.90;;
69878;SDS011;57161;43.136;24.706;2023-08-01T04:27:52;1.90;;;1.80;;
69878;SDS011;57161;43.136;24.706;2023-08-01T04:30:18;1.98;;;1.83;;
69878;SDS011;57161;43.136;24.706;2023-08-01T04:32:54;1.95;;;1.75;;
69878;SDS011;57161;43.136;24.706;2023-08-01T04:35:21;1.85;;;1.70;;
69878;SDS011;57161;43.136;24.706;2023-08-01T04:37:47;1.83;;;1.73;;
69878;SDS011;57161;43.136;24.706;2023-08-01T04:40:13;1.73;;;1.63;;
69878;SDS011;57161;43.136;24.706;2023-08-01T04:42:39;1.70;;;1.60;;
69878;SDS011;57161;43.136;24.706;2023-08-01T04:45:04;1.90;;;1.70;;
69878;SDS011;57161;43.136;24.706;2023-08-01T04:47:32;1.75;;;1.60;;
69878;SDS011;57161;43.136;24.706;2023-08-01T04:49:57;1.92;;;1.83;;
69878;SDS011;57161;43.136;24.706;2023-08-01T04:52:23;1.60;;;1.50;;
69878;SDS011;57161;43.136;24.706;2023-08-01T04:54:48;1.70;;;1.58;;
69878;SDS011;57161;43.136;24.706;2023-08-01T04:57:14;1.70;;;1.60;;
69878;SDS011;57161;43.136;24.706;2023-08-01T04:59:39;1.60;;;1.50;;
69878;SDS011;57161;43.136;24.706;2023-08-01T05:02:05;1.85;;;1.67;;
69878;SDS011;57161;43.136;24.706;2023-08-01T05:04:30;1.65;;;1.55;;
69878;SDS011;57161;43.136;24.706;2023-08-01T05:06:56;1.75;;;1.65;;
69878;SDS011;57161;43.136;24.706;2023-08-01T05:09:21;2.00;;;1.80;;
69878;SDS011;57161;43.136;24.706;2023-08-01T05:11:47;1.60;;;1.50;;
69878;SDS011;57161;43.136;24.706;2023-08-01T05:14:12;1.95;;;1.70;;
69878;SDS011;57161;43.136;24.706;2023-08-01T05:16:38;1.50;;;1.40;;
69878;SDS011;57161;43.136;24.706;2023-08-01T05:19:03;1.90;;;1.80;;
69878;SDS011;57161;43.136;24.706;2023-08-01T05:21:29;1.67;;;1.58;;
69878;SDS011;57161;43.136;24.706;2023-08-01T05:23:54;1.77;;;1.65;;
69878;SDS011;57161;43.136;24.706;2023-08-01T05:26:20;1.90;;;1.80;;
69878;SDS011;57161;43.136;24.706;2023-08-01T05:28:46;1.73;;;1.63;;
69878;SDS011;57161;43.136;24.706;2023-08-01T05:31:11;1.75;;;1.65;;
69878;SDS011;57161;43.136;24.706;2023-08-01T05:33:37;1.85;;;1.75;;
69878;SDS011;57161;43.136;24.706;2023-08-01T05:36:02;1.60;;;1.50;;
69878;SDS011;57161;43.136;24.706;2023-08-01T05:38:28;1.48;;;1.38;;
69878;SDS011;57161;43.136;24.706;2023-08-01T05:40:53;1.80;;;1.70;;
69878;SDS011;57161;43.136;24.706;2023-08-01T05:43:19;2.42;;;1.45;;
69878;SDS011;57161;43.136;24.706;2023-08-01T05:45:44;2.17;;;1.48;;
69878;SDS011;57161;43.136;24.706;2023-08-01T05:48:13;1.63;;;1.52;;
69878;SDS011;57161;43.136;24.706;2023-08-01T05:50:38;1.70;;;1.60;;
69878;SDS011;57161;43.136;24.706;2023-08-01T05:53:04;1.50;;;1.40;;
69878;SDS011;57161;43.136;24.706;2023-08-01T05:55:30;1.55;;;1.45;;
69878;SDS011;57161;43.136;24.706;2023-08-01T05:57:56;1.60;;;1.50;;
69878;SDS011;57161;43.136;24.706;2023-08-01T06:00:21;1.40;;;1.30;;
69878;SDS011;57161;43.136;24.706;2023-08-01T06:02:47;1.65;;;1.55;;
69878;SDS011;57161;43.136;24.706;2023-08-01T06:05:13;1.65;;;1.55;;
69878;SDS011;57161;43.136;24.706;2023-08-01T06:07:38;2.45;;;1.33;;
69878;SDS011;57161;43.136;24.706;2023-08-01T06:10:04;1.60;;;1.50;;
69878;SDS011;57161;43.136;24.706;2023-08-01T06:12:30;2.90;;;1.63;;
69878;SDS011;57161;43.136;24.706;2023-08-01T06:14:55;1.65;;;1.55;;
69878;SDS011;57161;43.136;24.706;2023-08-01T06:17:21;1.88;;;1.52;;
69878;SDS011;57161;43.136;24.706;2023-08-01T06:19:46;1.70;;;1.60;;
69878;SDS011;57161;43.136;24.706;2023-08-01T06:22:12;1.75;;;1.65;;
69878;SDS011;57161;43.136;24.706;2023-08-01T06:24:38;1.50;;;1.40;;
69878;SDS011;57161;43.136;24.706;2023-08-01T06:27:03;2.00;;;1.65;;
69878;SDS011;57161;43.136;24.706;2023-08-01T06:29:30;1.73;;;1.63;;
69878;SDS011;57161;43.136;24.706;2023-08-01T06:31:56;1.50;;;1.40;;
69878;SDS011;57161;43.136;24.706;2023-08-01T06:34:21;1.80;;;1.70;;
69878;SDS011;57161;43.136;24.706;2023-08-01T06:36:47;1.70;;;1.60;;
69878;SDS011;57161;43.136;24.706;2023-08-01T06:39:13;1.75;;;1.55;;
69878;SDS011;57161;43.136;24.706;2023-08-01T06:41:38;1.45;;;1.35;;
69878;SDS011;57161;43.136;24.706;2023-08-01T06:44:04;1.80;;;1.70;;
69878;SDS011;57161;43.136;24.706;2023-08-01T06:46:29;1.40;;;1.30;;
69878;SDS011;57161;43.136;24.706;2023-08-01T06:48:55;1.58;;;1.48;;
69878;SDS011;57161;43.136;24.706;2023-08-01T06:51:21;1.50;;;1.40;;
69878;SDS011;57161;43.136;24.706;2023-08-01T06:53:46;1.85;;;1.70;;
69878;SDS011;57161;43.136;24.706;2023-08-01T06:56:12;2.08;;;1.50;;
69878;SDS011;57161;43.136;24.706;2023-08-01T06:58:37;1.60;;;1.50;;
69878;SDS011;57161;43.136;24.706;2023-08-01T07:01:03;2.60;;;1.55;;
69878;SDS011;57161;43.136;24.706;2023-08-01T07:03:28;1.60;;;1.50;;
69878;SDS011;57161;43.136;24.706;2023-08-01T07:05:54;2.13;;;1.50;;
69878;SDS011;57161;43.136;24.706;2023-08-01T07:08:19;2.15;;;1.80;;
69878;SDS011;57161;43.136;24.706;2023-08-01T07:10:46;1.60;;;1.50;;
69878;SDS011;57161;43.136;24.706;2023-08-01T07:13:12;1.90;;;1.60;;
69878;SDS011;57161;43.136;24.706;2023-08-01T07:15:37;1.52;;;1.42;;
69878;SDS011;57161;43.136;24.706;2023-08-01T07:18:03;1.45;;;1.35;;
69878;SDS011;57161;43.136;24.706;2023-08-01T07:20:28;1.70;;;1.60;;
69878;SDS011;57161;43.136;24.706;2023-08-01T07:22:54;1.85;;;1.60;;
69878;SDS011;57161;43.136;24.706;2023-08-01T07:25:19;1.48;;;1.38;;
69878;SDS011;57161;43.136;24.706;2023-08-01T07:27:45;2.95;;;1.80;;
69878;SDS011;57161;43.136;24.706;2023-08-01T07:35:50;1.70;;;1.60;;
69878;SDS011;57161;43.136;24.706;2023-08-01T07:38:24;1.50;;;1.40;;
69878;SDS011;57161;43.136;24.706;2023-08-01T07:43:40;1.60;;;1.50;;
69878;SDS011;57161;43.136;24.706;2023-08-01T07:46:06;1.70;;;1.60;;
69878;SDS011;57161;43.136;24.706;2023-08-01T07:48:41;1.63;;;1.52;;
69878;SDS011;57161;43.136;24.706;2023-08-01T07:51:07;2.25;;;1.88;;
69878;SDS011;57161;43.136;24.706;2023-08-01T07:53:34;1.50;;;1.40;;
69878;SDS011;57161;43.136;24.706;2023-08-01T07:56:00;1.60;;;1.50;;
69878;SDS011;57161;43.136;24.706;2023-08-01T07:58:31;1.88;;;1.30;;
69878;SDS011;57161;43.136;24.706;2023-08-01T08:00:57;1.70;;;1.60;;
69878;SDS011;57161;43.136;24.706;2023-08-01T08:03:28;6.55;;;1.60;;
69878;SDS011;57161;43.136;24.706;2023-08-01T08:13:54;3.28;;;1.85;;
69878;SDS011;57161;43.136;24.706;2023-08-01T08:16:20;4.10;;;1.75;;
69878;SDS011;57161;43.136;24.706;2023-08-01T08:21:27;3.50;;;1.40;;
69878;SDS011;57161;43.136;24.706;2023-08-01T08:23:55;2.10;;;1.70;;
69878;SDS011;57161;43.136;24.706;2023-08-01T08:31:31;2.78;;;1.60;;
69878;SDS011;57161;43.136;24.706;2023-08-01T08:33:57;1.83;;;1.70;;
69878;SDS011;57161;43.136;24.706;2023-08-01T08:36:22;3.95;;;1.88;;
69878;SDS011;57161;43.136;24.706;2023-08-01T08:38:48;5.45;;;1.75;;
69878;SDS011;57161;43.136;24.706;2023-08-01T08:41:17;6.15;;;1.92;;
69878;SDS011;57161;43.136;24.706;2023-08-01T08:43:56;2.70;;;1.60;;
69878;SDS011;57161;43.136;24.706;2023-08-01T08:46:23;4.00;;;1.67;;
69878;SDS011;57161;43.136;24.706;2023-08-01T08:49:06;3.17;;;1.90;;
69878;SDS011;57161;43.136;24.706;2023-08-01T08:51:50;4.63;;;1.85;;
69878;SDS011;57161;43.136;24.706;2023-08-01T08:54:16;3.40;;;1.70;;
69878;SDS011;57161;43.136;24.706;2023-08-01T08:56:43;2.08;;;1.55;;
69878;SDS011;57161;43.136;24.706;2023-08-01T08:59:09;3.72;;;1.55;;
69878;SDS011;57161;43.136;24.706;2023-08-01T09:01:35;2.78;;;1.70;;
69878;SDS011;57161;43.136;24.706;2023-08-01T09:04:13;4.15;;;1.90;;
69878;SDS011;57161;43.136;24.706;2023-08-01T09:06:49;5.40;;;1.98;;
69878;SDS011;57161;43.136;24.706;2023-08-01T09:11:52;3.25;;;1.80;;
69878;SDS011;57161;43.136;24.706;2023-08-01T09:14:18;2.42;;;1.40;;
69878;SDS011;57161;43.136;24.706;2023-08-01T09:16:45;2.28;;;1.65;;
69878;SDS011;57161;43.136;24.706;2023-08-01T09:21:49;4.93;;;1.77;;
69878;SDS011;57161;43.136;24.706;2023-08-01T09:29:35;3.35;;;1.42;;
69878;SDS011;57161;43.136;24.706;2023-08-01T09:32:12;2.13;;;1.55;;
69878;SDS011;57161;43.136;24.706;2023-08-01T09:34:41;5.60;;;1.95;;
69878;SDS011;57161;43.136;24.706;2023-08-01T09:37:09;3.97;;;1.80;;
69878;SDS011;57161;43.136;24.706;2023-08-01T09:39:35;2.67;;;1.60;;
69878;SDS011;57161;43.136;24.706;2023-08-01T09:42:03;2.42;;;1.70;;
69878;SDS011;57161;43.136;24.706;2023-08-01T09:44:34;4.38;;;1.85;;
69878;SDS011;57161;43.136;24.706;2023-08-01T09:47:00;1.80;;;1.60;;
69878;SDS011;57161;43.136;24.706;2023-08-01T09:49:28;2.10;;;1.40;;
69878;SDS011;57161;43.136;24.706;2023-08-01T09:51:54;2.45;;;1.60;;
69878;SDS011;57161;43.136;24.706;2023-08-01T09:54:20;7.38;;;1.85;;
69878;SDS011;57161;43.136;24.706;2023-08-01T09:56:47;3.83;;;1.70;;
69878;SDS011;57161;43.136;24.706;2023-08-01T09:59:20;3.20;;;1.70;;
69878;SDS011;57161;43.136;24.706;2023-08-01T10:01:51;1.80;;;1.40;;
69878;SDS011;57161;43.136;24.706;2023-08-01T10:04:23;2.50;;;1.70;;
69878;SDS011;57161;43.136;24.706;2023-08-01T10:06:54;2.45;;;1.60;;
69878;SDS011;57161;43.136;24.706;2023-08-01T10:09:23;1.85;;;1.52;;
69878;SDS011;57161;43.136;24.706;2023-08-01T10:11:49;1.75;;;1.25;;
69878;SDS011;57161;43.136;24.706;2023-08-01T10:14:16;3.33;;;1.70;;
69878;SDS011;57161;43.136;24.706;2023-08-01T10:16:44;2.17;;;1.60;;
69878;SDS011;57161;43.136;24.706;2023-08-01T10:19:12;3.25;;;1.80;;
69878;SDS011;57161;43.136;24.706;2023-08-01T10:21:38;2.83;;;1.80;;
69878;SDS011;57161;43.136;24.706;2023-08-01T10:24:05;1.65;;;1.45;;
69878;SDS011;57161;43.136;24.706;2023-08-01T10:26:32;2.45;;;1.70;;
69878;SDS011;57161;43.136;24.706;2023-08-01T10:28:58;2.47;;;1.58;;
69878;SDS011;57161;43.136;24.706;2023-08-01T10:31:25;3.13;;;1.70;;
69878;SDS011;57161;43.136;24.706;2023-08-01T10:33:50;2.47;;;1.50;;
69878;SDS011;57161;43.136;24.706;2023-08-01T10:36:18;2.40;;;1.65;;
69878;SDS011;57161;43.136;24.706;2023-08-01T10:38:55;2.70;;;1.40;;
69878;SDS011;57161;43.136;24.706;2023-08-01T10:41:30;2.28;;;1.30;;
69878;SDS011;57161;43.136;24.706;2023-08-01T10:44:10;1.90;;;1.60;;
69878;SDS011;57161;43.136;24.706;2023-08-01T10:46:52;1.88;;;1.52;;
69878;SDS011;57161;43.136;24.706;2023-08-01T10:49:20;2.78;;;1.38;;
69878;SDS011;57161;43.136;24.706;2023-08-01T10:51:58;2.05;;;1.77;;
69878;SDS011;57161;43.136;24.706;2023-08-01T10:54:25;1.38;;;1.27;;
69878;SDS011;57161;43.136;24.706;2023-08-01T10:56:52;2.38;;;1.70;;
69878;SDS011;57161;43.136;24.706;2023-08-01T10:59:21;2.22;;;1.45;;
69878;SDS011;57161;43.136;24.706;2023-08-01T11:01:51;1.80;;;1.70;;
69878;SDS011;57161;43.136;24.706;2023-08-01T11:06:44;2.38;;;1.45;;
69878;SDS011;57161;43.136;24.706;2023-08-01T11:09:19;1.75;;;1.50;;
69878;SDS011;57161;43.136;24.706;2023-08-01T11:11:47;1.63;;;1.52;;
69878;SDS011;57161;43.136;24.706;2023-08-01T11:14:16;1.50;;;1.38;;
69878;SDS011;57161;43.136;24.706;2023-08-01T11:16:42;2.03;;;1.45;;
69878;SDS011;57161;43.136;24.706;2023-08-01T11:21:51;2.40;;;1.55;;
69878;SDS011;57161;43.136;24.706;2023-08-01T11:24:18;1.55;;;1.45;;
69878;SDS011;57161;43.136;24.706;2023-08-01T11:26:46;1.40;;;1.30;;
69878;SDS011;57161;43.136;24.706;2023-08-01T11:29:13;1.50;;;1.40;;
69878;SDS011;57161;43.136;24.706;2023-08-01T11:31:40;1.65;;;1.55;;
69878;SDS011;57161;43.136;24.706;2023-08-01T11:34:09;1.42;;;1.33;;
69878;SDS011;57161;43.136;24.706;2023-08-01T11:36:37;1.60;;;1.40;;
69878;SDS011;57161;43.136;24.706;2023-08-01T11:39:04;1.40;;;1.30;;
69878;SDS011;57161;43.136;24.706;2023-08-01T11:41:29;1.33;;;1.23;;
69878;SDS011;57161;43.136;24.706;2023-08-01T11:43:55;1.58;;;1.40;;
69878;SDS011;57161;43.136;24.706;2023-08-01T11:46:33;1.70;;;1.50;;
69878;SDS011;57161;43.136;24.706;2023-08-01T11:49:00;1.92;;;1.38;;
69878;SDS011;57161;43.136;24.706;2023-08-01T11:51:26;1.58;;;1.42;;
69878;SDS011;57161;43.136;24.706;2023-08-01T11:54:02;2.22;;;1.40;;
69878;SDS011;57161;43.136;24.706;2023-08-01T11:56:29;1.63;;;1.30;;
69878;SDS011;57161;43.136;24.706;2023-08-01T11:58:55;1.50;;;1.27;;
69878;SDS011;57161;43.136;24.706;2023-08-01T12:01:21;6.15;;;1.50;;
69878;SDS011;57161;43.136;24.706;2023-08-01T12:03:48;2.67;;;1.33;;
69878;SDS011;57161;43.136;24.706;2023-08-01T12:06:18;2.70;;;1.33;;
69878;SDS011;57161;43.136;24.706;2023-08-01T12:08:47;1.30;;;1.20;;
69878;SDS011;57161;43.136;24.706;2023-08-01T12:11:19;1.48;;;1.35;;
69878;SDS011;57161;43.136;24.706;2023-08-01T12:14:03;1.52;;;1.30;;
69878;SDS011;57161;43.136;24.706;2023-08-01T12:16:30;1.38;;;1.20;;
69878;SDS011;57161;43.136;24.706;2023-08-01T12:19:00;1.40;;;1.20;;
69878;SDS011;57161;43.136;24.706;2023-08-01T12:21:32;1.50;;;1.35;;
69878;SDS011;57161;43.136;24.706;2023-08-01T12:23:58;1.50;;;1.30;;
69878;SDS011;57161;43.136;24.706;2023-08-01T12:26:24;2.20;;;1.10;;
69878;SDS011;57161;43.136;24.706;2023-08-01T12:28:51;3.00;;;1.40;;
69878;SDS011;57161;43.136;24.706;2023-08-01T12:31:17;2.33;;;1.23;;
69878;SDS011;57161;43.136;24.706;2023-08-01T12:33:43;2.17;;;1.20;;
69878;SDS011;57161;43.136;24.706;2023-08-01T12:36:10;1.48;;;1.27;;
69878;SDS011;57161;43.136;24.706;2023-08-01T12:38:36;1.30;;;1.20;;
69878;SDS011;57161;43.136;24.706;2023-08-01T12:43:41;1.35;;;1.25;;
69878;SDS011;57161;43.136;24.706;2023-08-01T12:46:07;1.35;;;1.25;;
69878;SDS011;57161;43.136;24.706;2023-08-01T12:48:33;1.45;;;1.27;;
69878;SDS011;57161;43.136;24.706;2023-08-01T12:50:58;1.40;;;1.30;;
69878;SDS011;57161;43.136;24.706;2023-08-01T12:53:24;1.20;;;1.10;;
69878;SDS011;57161;43.136;24.706;2023-08-01T12:55:51;1.33;;;1.20;;
69878;SDS011;57161;43.136;24.706;2023-08-01T12:58:17;1.30;;;1.20;;
69878;SDS011;57161;43.136;24.706;2023-08-01T13:00:43;1.48;;;1.13;;
69878;SDS011;57161;43.136;24.706;2023-08-01T13:03:09;1.20;;;1.10;;
69878;SDS011;57161;43.136;24.706;2023-08-01T13:05:45;1.15;;;1.10;;
69878;SDS011;57161;43.136;24.706;2023-08-01T13:08:18;1.20;;;1.10;;
69878;SDS011;57161;43.136;24.706;2023-08-01T13:10:44;1.23;;;1.10;;
69878;SDS011;57161;43.136;24.706;2023-08-01T13:13:11;1.80;;;1.10;;
69878;SDS011;57161;43.136;24.706;2023-08-01T13:15:40;1.35;;;1.25;;
69878;SDS011;57161;43.136;24.706;2023-08-01T13:18:07;1.20;;;1.10;;
69878;SDS011;57161;43.136;24.706;2023-08-01T13:20:34;1.23;;;1.13;;
69878;SDS011;57161;43.136;24.706;2023-08-01T13:23:01;1.20;;;1.10;;
69878;SDS011;57161;43.136;24.706;2023-08-01T13:25:27;1.50;;;1.27;;
69878;SDS011;57161;43.136;24.706;2023-08-01T13:27:53;1.20;;;1.10;;
69878;SDS011;57161;43.136;24.706;2023-08-01T13:30:18;1.35;;;1.20;;
69878;SDS011;57161;43.136;24.706;2023-08-01T13:32:47;1.05;;;0.95;;
69878;SDS011;57161;43.136;24.706;2023-08-01T13:35:13;1.20;;;1.10;;
69878;SDS011;57161;43.136;24.706;2023-08-01T13:37:39;1.23;;;1.00;;
69878;SDS011;57161;43.136;24.706;2023-08-01T13:40:05;1.52;;;1.20;;
69878;SDS011;57161;43.136;24.706;2023-08-01T13:42:31;1.20;;;1.10;;
69878;SDS011;57161;43.136;24.706;2023-08-01T13:44:57;1.20;;;1.10;;
69878;SDS011;57161;43.136;24.706;2023-08-01T13:47:22;1.35;;;1.25;;
69878;SDS011;57161;43.136;24.706;2023-08-01T13:49:48;1.10;;;1.00;;
69878;SDS011;57161;43.136;24.706;2023-08-01T13:52:14;1.20;;;1.10;;
69878;SDS011;57161;43.136;24.706;2023-08-01T13:54:39;1.10;;;1.00;;
69878;SDS011;57161;43.136;24.706;2023-08-01T13:57:05;1.20;;;1.10;;
69878;SDS011;57161;43.136;24.706;2023-08-01T13:59:31;1.75;;;1.00;;
69878;SDS011;57161;43.136;24.706;2023-08-01T14:01:56;1.23;;;1.02;;
69878;SDS011;57161;43.136;24.706;2023-08-01T14:04:22;1.23;;;1.10;;
69878;SDS011;57161;43.136;24.706;2023-08-01T14:06:47;1.27;;;1.02;;
69878;SDS011;57161;43.136;24.706;2023-08-01T14:09:13;1.38;;;1.17;;
69878;SDS011;57161;43.136;24.706;2023-08-01T14:11:41;1.10;;;1.00;;
69878;SDS011;57161;43.136;24.706;2023-08-01T14:14:06;1.27;;;0.98;;
69878;SDS011;57161;43.136;24.706;2023-08-01T14:16:32;1.17;;;0.90;;
69878;SDS011;57161;43.136;24.706;2023-08-01T14:19:00;1.05;;;0.95;;
69878;SDS011;57161;43.136;24.706;2023-08-01T14:21:26;1.15;;;1.00;;
69878;SDS011;57161;43.136;24.706;2023-08-01T14:23:52;1.20;;;1.08;;
69878;SDS011;57161;43.136;24.706;2023-08-01T14:26:17;0.93;;;0.88;;
69878;SDS011;57161;43.136;24.706;2023-08-01T14:28:43;0.90;;;0.88;;
69878;SDS011;57161;43.136;24.706;2023-08-01T14:31:08;1.23;;;1.00;;
69878;SDS011;57161;43.136;24.706;2023-08-01T14:33:34;1.38;;;0.98;;
69878;SDS011;57161;43.136;24.706;2023-08-01T14:35:59;0.80;;;0.80;;
69878;SDS011;57161;43.136;24.706;2023-08-01T14:38:26;1.00;;;0.90;;
69878;SDS011;57161;43.136;24.706;2023-08-01T14:41:04;1.08;;;1.00;;
69878;SDS011;57161;43.136;24.706;2023-08-01T14:43:32;0.90;;;0.90;;
69878;SDS011;57161;43.136;24.706;2023-08-01T14:46:14;1.13;;;0.82;;
69878;SDS011;57161;43.136;24.706;2023-08-01T14:48:44;1.73;;;1.00;;
69878;SDS011;57161;43.136;24.706;2023-08-01T14:51:11;1.08;;;1.00;;
69878;SDS011;57161;43.136;24.706;2023-08-01T14:53:37;1.00;;;0.90;;
69878;SDS011;57161;43.136;24.706;2023-08-01T14:56:02;1.10;;;1.00;;
69878;SDS011;57161;43.136;24.706;2023-08-01T14:58:30;0.82;;;0.82;;
69878;SDS011;57161;43.136;24.706;2023-08-01T15:06:11;0.80;;;0.80;;
69878;SDS011;57161;43.136;24.706;2023-08-01T15:08:38;0.98;;;0.98;;
69878;SDS011;57161;43.136;24.706;2023-08-01T15:11:14;1.00;;;0.90;;
69878;SDS011;57161;43.136;24.706;2023-08-01T15:13:41;1.20;;;1.10;;
69878;SDS011;57161;43.136;24.706;2023-08-01T15:16:08;1.00;;;0.80;;
69878;SDS011;57161;43.136;24.706;2023-08-01T15:18:39;0.90;;;0.90;;